sensor_id;sensor_type;location;lat;lon;timestamp;P1;durP1;ratioP1;P2;durP2;ratioP2
13463;SDS011;6804;48.774;9.174;2023-06-04T00:01:27;7.17;;;5.70;;
13463;SDS011;6804;48.774;9.174;2023-06-04T00:03:56;11.70;;;6.00;;
13463;SDS011;6804;48.774;9.174;2023-06-04T00:06:26;7.00;;;5.73;;
13463;SDS011;6804;48.774;9.174;2023-06-04T00:08:54;7.23;;;5.77;;
13463;SDS011;6804;48.774;9.174;2023-06-04T00:11:23;5.90;;;5.30;;
13463;SDS011;6804;48.774;9.174;2023-06-04T00:13:51;7.60;;;5.40;;
13463;SDS011;6804;48.774;9.174;2023-06-04T00:16:19;6.83;;;6.07;;
13463;SDS011;6804;48.774;9.174;2023-06-04T00:18:46;7.80;;;5.80;;
13463;SDS011;6804;48.774;9.174;2023-06-04T00:21:14;5.93;;;5.33;;
13463;SDS011;6804;48.774;9.174;2023-06-04T00:23:42;6.40;;;5.40;;
13463;SDS011;6804;48.774;9.174;2023-06-04T00:26:12;8.90;;;5.70;;
13463;SDS011;6804;48.774;9.174;2023-06-04T00:28:41;7.27;;;6.23;;
13463;SDS011;6804;48.774;9.174;2023-06-04T00:31:11;6.80;;;5.43;;
13463;SDS011;6804;48.774;9.174;2023-06-04T00:33:39;6.47;;;5.27;;
13463;SDS011;6804;48.774;9.174;2023-06-04T00:36:06;7.63;;;6.00;;
13463;SDS011;6804;48.774;9.174;2023-06-04T00:38:34;6.17;;;5.57;;
13463;SDS011;6804;48.774;9.174;2023-06-04T00:41:08;5.67;;;5.07;;
13463;SDS011;6804;48.774;9.174;2023-06-04T00:43:37;7.80;;;5.33;;
13463;SDS011;6804;48.774;9.174;2023-06-04T00:46:07;7.70;;;5.50;;
13463;SDS011;6804;48.774;9.174;2023-06-04T00:48:34;8.47;;;5.20;;
13463;SDS011;6804;48.774;9.174;2023-06-04T00:51:04;8.63;;;5.57;;
13463;SDS011;6804;48.774;9.174;2023-06-04T00:53:32;6.57;;;5.83;;
13463;SDS011;6804;48.774;9.174;2023-06-04T00:55:59;6.13;;;5.50;;
13463;SDS011;6804;48.774;9.174;2023-06-04T00:58:31;9.73;;;5.73;;
13463;SDS011;6804;48.774;9.174;2023-06-04T01:01:03;8.30;;;5.60;;
13463;SDS011;6804;48.774;9.174;2023-06-04T01:03:38;6.93;;;5.67;;
13463;SDS011;6804;48.774;9.174;2023-06-04T01:06:11;8.77;;;6.07;;
13463;SDS011;6804;48.774;9.174;2023-06-04T01:08:46;6.20;;;5.07;;
13463;SDS011;6804;48.774;9.174;2023-06-04T01:11:30;6.17;;;5.33;;
13463;SDS011;6804;48.774;9.174;2023-06-04T01:13:59;7.70;;;5.47;;
13463;SDS011;6804;48.774;9.174;2023-06-04T01:16:35;7.73;;;5.77;;
13463;SDS011;6804;48.774;9.174;2023-06-04T01:19:10;5.83;;;5.20;;
13463;SDS011;6804;48.774;9.174;2023-06-04T01:21:48;6.73;;;6.00;;
13463;SDS011;6804;48.774;9.174;2023-06-04T01:24:23;7.10;;;6.33;;
13463;SDS011;6804;48.774;9.174;2023-06-04T01:26:54;8.97;;;5.77;;
13463;SDS011;6804;48.774;9.174;2023-06-04T01:29:22;6.33;;;5.67;;
13463;SDS011;6804;48.774;9.174;2023-06-04T01:31:49;6.60;;;5.43;;
13463;SDS011;6804;48.774;9.174;2023-06-04T01:34:21;6.20;;;5.53;;
13463;SDS011;6804;48.774;9.174;2023-06-04T01:36:51;6.70;;;5.70;;
13463;SDS011;6804;48.774;9.174;2023-06-04T01:39:20;6.83;;;5.07;;
13463;SDS011;6804;48.774;9.174;2023-06-04T01:41:47;6.67;;;5.27;;
13463;SDS011;6804;48.774;9.174;2023-06-04T01:44:14;6.13;;;5.50;;
13463;SDS011;6804;48.774;9.174;2023-06-04T01:47:18;5.97;;;5.37;;
13463;SDS011;6804;48.774;9.174;2023-06-04T01:49:50;7.40;;;5.97;;
13463;SDS011;6804;48.774;9.174;2023-06-04T01:52:17;7.67;;;5.53;;
13463;SDS011;6804;48.774;9.174;2023-06-04T01:54:46;6.50;;;5.40;;
13463;SDS011;6804;48.774;9.174;2023-06-04T01:57:19;7.13;;;5.67;;
13463;SDS011;6804;48.774;9.174;2023-06-04T01:59:47;7.70;;;5.53;;
13463;SDS011;6804;48.774;9.174;2023-06-04T02:02:16;7.93;;;5.07;;
13463;SDS011;6804;48.774;9.174;2023-06-04T02:04:45;6.57;;;5.60;;
13463;SDS011;6804;48.774;9.174;2023-06-04T02:07:18;6.13;;;5.37;;
13463;SDS011;6804;48.774;9.174;2023-06-04T02:09:46;6.13;;;5.30;;
13463;SDS011;6804;48.774;9.174;2023-06-04T02:12:14;7.57;;;4.67;;
13463;SDS011;6804;48.774;9.174;2023-06-04T02:14:42;7.37;;;4.97;;
13463;SDS011;6804;48.774;9.174;2023-06-04T02:17:18;5.97;;;5.20;;
13463;SDS011;6804;48.774;9.174;2023-06-04T02:19:45;6.63;;;6.03;;
13463;SDS011;6804;48.774;9.174;2023-06-04T02:22:16;5.30;;;4.80;;
13463;SDS011;6804;48.774;9.174;2023-06-04T02:24:44;9.27;;;5.70;;
13463;SDS011;6804;48.774;9.174;2023-06-04T02:27:13;6.80;;;5.13;;
13463;SDS011;6804;48.774;9.174;2023-06-04T02:29:46;6.47;;;5.10;;
13463;SDS011;6804;48.774;9.174;2023-06-04T02:32:13;5.80;;;5.23;;
13463;SDS011;6804;48.774;9.174;2023-06-04T02:34:41;6.57;;;5.10;;
13463;SDS011;6804;48.774;9.174;2023-06-04T02:37:11;6.03;;;5.00;;
13463;SDS011;6804;48.774;9.174;2023-06-04T02:39:39;6.77;;;5.27;;
13463;SDS011;6804;48.774;9.174;2023-06-04T02:42:07;6.00;;;5.40;;
13463;SDS011;6804;48.774;9.174;2023-06-04T02:44:34;7.37;;;5.03;;
13463;SDS011;6804;48.774;9.174;2023-06-04T02:47:03;6.33;;;5.20;;
13463;SDS011;6804;48.774;9.174;2023-06-04T02:49:30;6.37;;;4.93;;
13463;SDS011;6804;48.774;9.174;2023-06-04T02:51:58;7.23;;;5.40;;
13463;SDS011;6804;48.774;9.174;2023-06-04T02:54:25;4.97;;;4.47;;
13463;SDS011;6804;48.774;9.174;2023-06-04T02:56:54;6.00;;;4.87;;
13463;SDS011;6804;48.774;9.174;2023-06-04T02:59:21;4.03;;;3.47;;
13463;SDS011;6804;48.774;9.174;2023-06-04T03:01:49;5.13;;;3.90;;
13463;SDS011;6804;48.774;9.174;2023-06-04T03:04:16;5.17;;;3.87;;
13463;SDS011;6804;48.774;9.174;2023-06-04T03:06:45;4.80;;;3.77;;
13463;SDS011;6804;48.774;9.174;2023-06-04T03:09:13;6.70;;;3.80;;
13463;SDS011;6804;48.774;9.174;2023-06-04T03:11:40;5.17;;;3.70;;
13463;SDS011;6804;48.774;9.174;2023-06-04T03:14:12;3.47;;;3.00;;
13463;SDS011;6804;48.774;9.174;2023-06-04T03:16:40;3.77;;;2.83;;
13463;SDS011;6804;48.774;9.174;2023-06-04T03:19:10;4.17;;;2.93;;
13463;SDS011;6804;48.774;9.174;2023-06-04T03:21:38;5.67;;;3.30;;
13463;SDS011;6804;48.774;9.174;2023-06-04T03:24:05;3.60;;;3.30;;
13463;SDS011;6804;48.774;9.174;2023-06-04T03:26:35;4.47;;;3.17;;
13463;SDS011;6804;48.774;9.174;2023-06-04T03:29:02;3.43;;;2.90;;
13463;SDS011;6804;48.774;9.174;2023-06-04T03:31:34;3.17;;;2.87;;
13463;SDS011;6804;48.774;9.174;2023-06-04T03:34:01;4.30;;;2.80;;
13463;SDS011;6804;48.774;9.174;2023-06-04T03:36:32;7.90;;;3.33;;
13463;SDS011;6804;48.774;9.174;2023-06-04T03:39:03;4.67;;;2.97;;
13463;SDS011;6804;48.774;9.174;2023-06-04T03:41:33;5.77;;;3.13;;
13463;SDS011;6804;48.774;9.174;2023-06-04T03:44:01;5.53;;;2.90;;
13463;SDS011;6804;48.774;9.174;2023-06-04T03:46:31;3.23;;;2.73;;
13463;SDS011;6804;48.774;9.174;2023-06-04T03:49:06;4.17;;;2.73;;
13463;SDS011;6804;48.774;9.174;2023-06-04T03:51:36;4.43;;;2.83;;
13463;SDS011;6804;48.774;9.174;2023-06-04T03:54:03;5.00;;;3.70;;
13463;SDS011;6804;48.774;9.174;2023-06-04T03:56:31;3.63;;;2.77;;
13463;SDS011;6804;48.774;9.174;2023-06-04T03:58:59;4.30;;;3.10;;
13463;SDS011;6804;48.774;9.174;2023-06-04T04:01:26;3.73;;;2.90;;
13463;SDS011;6804;48.774;9.174;2023-06-04T04:03:58;3.73;;;2.80;;
13463;SDS011;6804;48.774;9.174;2023-06-04T04:06:28;4.47;;;2.70;;
13463;SDS011;6804;48.774;9.174;2023-06-04T04:08:55;4.93;;;3.80;;
13463;SDS011;6804;48.774;9.174;2023-06-04T04:11:23;5.60;;;4.53;;
13463;SDS011;6804;48.774;9.174;2023-06-04T04:13:53;5.10;;;4.37;;
13463;SDS011;6804;48.774;9.174;2023-06-04T04:16:25;4.30;;;3.90;;
13463;SDS011;6804;48.774;9.174;2023-06-04T04:18:52;5.97;;;4.00;;
13463;SDS011;6804;48.774;9.174;2023-06-04T04:21:22;6.97;;;3.00;;
13463;SDS011;6804;48.774;9.174;2023-06-04T04:23:53;5.27;;;3.20;;
13463;SDS011;6804;48.774;9.174;2023-06-04T04:26:22;5.93;;;4.10;;
13463;SDS011;6804;48.774;9.174;2023-06-04T04:28:53;5.43;;;3.37;;
13463;SDS011;6804;48.774;9.174;2023-06-04T04:33:54;4.20;;;3.00;;
13463;SDS011;6804;48.774;9.174;2023-06-04T04:36:23;3.37;;;2.80;;
13463;SDS011;6804;48.774;9.174;2023-06-04T04:38:51;7.47;;;4.10;;
13463;SDS011;6804;48.774;9.174;2023-06-04T04:41:20;5.00;;;3.03;;
13463;SDS011;6804;48.774;9.174;2023-06-04T04:43:48;4.00;;;2.80;;
13463;SDS011;6804;48.774;9.174;2023-06-04T04:46:15;5.10;;;2.97;;
13463;SDS011;6804;48.774;9.174;2023-06-04T04:48:43;3.43;;;2.77;;
13463;SDS011;6804;48.774;9.174;2023-06-04T04:51:11;4.87;;;3.50;;
13463;SDS011;6804;48.774;9.174;2023-06-04T04:53:42;6.00;;;3.60;;
13463;SDS011;6804;48.774;9.174;2023-06-04T04:56:09;4.93;;;3.20;;
13463;SDS011;6804;48.774;9.174;2023-06-04T04:58:37;4.33;;;3.23;;
13463;SDS011;6804;48.774;9.174;2023-06-04T05:01:04;5.20;;;3.00;;
13463;SDS011;6804;48.774;9.174;2023-06-04T05:03:35;5.50;;;3.07;;
13463;SDS011;6804;48.774;9.174;2023-06-04T05:06:05;3.80;;;3.07;;
13463;SDS011;6804;48.774;9.174;2023-06-04T05:08:33;3.03;;;2.67;;
13463;SDS011;6804;48.774;9.174;2023-06-04T05:11:04;4.20;;;3.20;;
13463;SDS011;6804;48.774;9.174;2023-06-04T05:13:32;5.30;;;3.00;;
13463;SDS011;6804;48.774;9.174;2023-06-04T05:16:00;4.60;;;3.37;;
13463;SDS011;6804;48.774;9.174;2023-06-04T05:21:17;4.93;;;2.77;;
13463;SDS011;6804;48.774;9.174;2023-06-04T05:26:34;4.27;;;2.30;;
13463;SDS011;6804;48.774;9.174;2023-06-04T05:29:06;4.53;;;2.17;;
13463;SDS011;6804;48.774;9.174;2023-06-04T05:31:34;2.53;;;2.33;;
13463;SDS011;6804;48.774;9.174;2023-06-04T05:34:02;3.00;;;2.23;;
13463;SDS011;6804;48.774;9.174;2023-06-04T05:36:30;3.10;;;2.03;;
13463;SDS011;6804;48.774;9.174;2023-06-04T05:38:59;2.73;;;2.13;;
13463;SDS011;6804;48.774;9.174;2023-06-04T05:41:26;6.20;;;2.37;;
13463;SDS011;6804;48.774;9.174;2023-06-04T05:43:55;2.87;;;2.50;;
13463;SDS011;6804;48.774;9.174;2023-06-04T05:46:22;2.60;;;2.40;;
13463;SDS011;6804;48.774;9.174;2023-06-04T05:48:52;3.17;;;2.27;;
13463;SDS011;6804;48.774;9.174;2023-06-04T05:51:20;2.93;;;2.40;;
13463;SDS011;6804;48.774;9.174;2023-06-04T05:53:50;3.33;;;2.60;;
13463;SDS011;6804;48.774;9.174;2023-06-04T05:56:20;2.63;;;2.13;;
13463;SDS011;6804;48.774;9.174;2023-06-04T05:58:51;3.97;;;2.37;;
13463;SDS011;6804;48.774;9.174;2023-06-04T06:01:19;3.10;;;2.50;;
13463;SDS011;6804;48.774;9.174;2023-06-04T06:03:48;4.63;;;2.30;;
13463;SDS011;6804;48.774;9.174;2023-06-04T06:06:18;4.50;;;2.30;;
13463;SDS011;6804;48.774;9.174;2023-06-04T06:08:46;3.90;;;2.50;;
13463;SDS011;6804;48.774;9.174;2023-06-04T06:11:14;2.87;;;2.27;;
13463;SDS011;6804;48.774;9.174;2023-06-04T06:13:45;3.07;;;2.17;;
13463;SDS011;6804;48.774;9.174;2023-06-04T06:16:12;3.17;;;2.47;;
13463;SDS011;6804;48.774;9.174;2023-06-04T06:18:45;3.67;;;2.30;;
13463;SDS011;6804;48.774;9.174;2023-06-04T06:21:12;4.20;;;2.50;;
13463;SDS011;6804;48.774;9.174;2023-06-04T06:23:44;4.67;;;2.43;;
13463;SDS011;6804;48.774;9.174;2023-06-04T06:26:11;3.07;;;2.00;;
13463;SDS011;6804;48.774;9.174;2023-06-04T06:28:45;3.37;;;2.17;;
13463;SDS011;6804;48.774;9.174;2023-06-04T06:31:15;5.17;;;2.50;;
13463;SDS011;6804;48.774;9.174;2023-06-04T06:33:43;2.70;;;2.03;;
13463;SDS011;6804;48.774;9.174;2023-06-04T06:36:16;3.67;;;2.00;;
13463;SDS011;6804;48.774;9.174;2023-06-04T06:38:44;2.53;;;1.97;;
13463;SDS011;6804;48.774;9.174;2023-06-04T06:41:14;2.40;;;1.80;;
13463;SDS011;6804;48.774;9.174;2023-06-04T06:43:43;2.87;;;2.03;;
13463;SDS011;6804;48.774;9.174;2023-06-04T06:46:11;2.30;;;1.97;;
13463;SDS011;6804;48.774;9.174;2023-06-04T06:48:40;4.50;;;2.40;;
13463;SDS011;6804;48.774;9.174;2023-06-04T06:51:12;2.93;;;2.57;;
13463;SDS011;6804;48.774;9.174;2023-06-04T06:53:39;3.47;;;2.07;;
13463;SDS011;6804;48.774;9.174;2023-06-04T06:56:07;4.77;;;2.40;;
13463;SDS011;6804;48.774;9.174;2023-06-04T06:58:34;2.50;;;1.60;;
13463;SDS011;6804;48.774;9.174;2023-06-04T07:01:03;4.73;;;2.07;;
13463;SDS011;6804;48.774;9.174;2023-06-04T07:03:31;3.33;;;2.00;;
13463;SDS011;6804;48.774;9.174;2023-06-04T07:06:01;3.57;;;2.00;;
13463;SDS011;6804;48.774;9.174;2023-06-04T07:08:30;3.63;;;1.70;;
13463;SDS011;6804;48.774;9.174;2023-06-04T07:10:58;2.27;;;2.00;;
13463;SDS011;6804;48.774;9.174;2023-06-04T07:13:28;4.33;;;2.20;;
13463;SDS011;6804;48.774;9.174;2023-06-04T07:15:57;3.47;;;2.17;;
13463;SDS011;6804;48.774;9.174;2023-06-04T07:18:25;4.57;;;2.50;;
13463;SDS011;6804;48.774;9.174;2023-06-04T07:20:55;4.27;;;1.93;;
13463;SDS011;6804;48.774;9.174;2023-06-04T07:23:22;4.37;;;1.80;;
13463;SDS011;6804;48.774;9.174;2023-06-04T07:25:51;2.70;;;2.10;;
13463;SDS011;6804;48.774;9.174;2023-06-04T07:28:18;4.87;;;2.60;;
13463;SDS011;6804;48.774;9.174;2023-06-04T07:30:48;3.57;;;2.00;;
13463;SDS011;6804;48.774;9.174;2023-06-04T07:33:15;3.77;;;2.20;;
13463;SDS011;6804;48.774;9.174;2023-06-04T07:35:50;2.53;;;2.03;;
13463;SDS011;6804;48.774;9.174;2023-06-04T07:38:17;4.93;;;2.20;;
13463;SDS011;6804;48.774;9.174;2023-06-04T07:40:45;3.93;;;2.47;;
13463;SDS011;6804;48.774;9.174;2023-06-04T07:43:17;3.00;;;2.17;;
13463;SDS011;6804;48.774;9.174;2023-06-04T07:45:44;3.33;;;2.10;;
13463;SDS011;6804;48.774;9.174;2023-06-04T07:48:14;2.55;;;2.17;;
13463;SDS011;6804;48.774;9.174;2023-06-04T07:50:44;3.58;;;2.15;;
13463;SDS011;6804;48.774;9.174;2023-06-04T07:53:18;3.70;;;1.90;;
13463;SDS011;6804;48.774;9.174;2023-06-04T07:55:49;3.03;;;2.22;;
13463;SDS011;6804;48.774;9.174;2023-06-04T07:58:18;2.83;;;2.20;;
13463;SDS011;6804;48.774;9.174;2023-06-04T08:00:45;4.03;;;2.10;;
13463;SDS011;6804;48.774;9.174;2023-06-04T08:03:12;3.15;;;2.10;;
13463;SDS011;6804;48.774;9.174;2023-06-04T08:05:40;2.85;;;2.13;;
13463;SDS011;6804;48.774;9.174;2023-06-04T08:08:11;2.30;;;2.10;;
13463;SDS011;6804;48.774;9.174;2023-06-04T08:10:39;3.90;;;2.70;;
13463;SDS011;6804;48.774;9.174;2023-06-04T08:13:07;5.28;;;2.47;;
13463;SDS011;6804;48.774;9.174;2023-06-04T08:15:38;3.47;;;2.30;;
13463;SDS011;6804;48.774;9.174;2023-06-04T08:18:05;4.30;;;2.15;;
13463;SDS011;6804;48.774;9.174;2023-06-04T08:20:33;4.88;;;2.33;;
13463;SDS011;6804;48.774;9.174;2023-06-04T08:23:01;4.85;;;2.13;;
13463;SDS011;6804;48.774;9.174;2023-06-04T08:25:28;2.20;;;2.00;;
13463;SDS011;6804;48.774;9.174;2023-06-04T08:27:56;4.03;;;2.20;;
13463;SDS011;6804;48.774;9.174;2023-06-04T08:30:24;2.65;;;2.35;;
13463;SDS011;6804;48.774;9.174;2023-06-04T08:32:54;5.80;;;2.53;;
13463;SDS011;6804;48.774;9.174;2023-06-04T08:35:21;3.85;;;2.20;;
13463;SDS011;6804;48.774;9.174;2023-06-04T08:37:48;3.97;;;2.55;;
13463;SDS011;6804;48.774;9.174;2023-06-04T08:40:18;4.25;;;2.30;;
13463;SDS011;6804;48.774;9.174;2023-06-04T08:42:50;5.30;;;2.60;;
13463;SDS011;6804;48.774;9.174;2023-06-04T08:45:23;3.30;;;2.10;;
13463;SDS011;6804;48.774;9.174;2023-06-04T08:47:50;2.47;;;1.98;;
13463;SDS011;6804;48.774;9.174;2023-06-04T08:50:21;2.65;;;2.10;;
13463;SDS011;6804;48.774;9.174;2023-06-04T08:52:51;3.80;;;2.30;;
13463;SDS011;6804;48.774;9.174;2023-06-04T08:55:19;3.13;;;2.30;;
13463;SDS011;6804;48.774;9.174;2023-06-04T08:57:50;2.83;;;2.22;;
13463;SDS011;6804;48.774;9.174;2023-06-04T09:00:18;4.18;;;2.50;;
13463;SDS011;6804;48.774;9.174;2023-06-04T09:02:49;4.95;;;2.22;;
13463;SDS011;6804;48.774;9.174;2023-06-04T09:05:24;6.95;;;2.50;;
13463;SDS011;6804;48.774;9.174;2023-06-04T09:07:52;2.17;;;1.98;;
13463;SDS011;6804;48.774;9.174;2023-06-04T09:10:21;2.30;;;2.10;;
13463;SDS011;6804;48.774;9.174;2023-06-04T09:12:51;4.00;;;2.22;;
13463;SDS011;6804;48.774;9.174;2023-06-04T09:15:21;4.72;;;2.05;;
13463;SDS011;6804;48.774;9.174;2023-06-04T09:17:48;3.20;;;2.20;;
13463;SDS011;6804;48.774;9.174;2023-06-04T09:20:21;2.35;;;2.15;;
13463;SDS011;6804;48.774;9.174;2023-06-04T09:22:51;2.42;;;2.13;;
13463;SDS011;6804;48.774;9.174;2023-06-04T09:25:19;3.72;;;2.35;;
13463;SDS011;6804;48.774;9.174;2023-06-04T09:27:53;4.38;;;2.90;;
13463;SDS011;6804;48.774;9.174;2023-06-04T09:30:24;4.30;;;2.15;;
13463;SDS011;6804;48.774;9.174;2023-06-04T09:32:52;4.53;;;2.47;;
13463;SDS011;6804;48.774;9.174;2023-06-04T09:35:19;2.30;;;2.10;;
13463;SDS011;6804;48.774;9.174;2023-06-04T09:37:55;4.70;;;2.60;;
13463;SDS011;6804;48.774;9.174;2023-06-04T09:40:22;3.47;;;2.42;;
13463;SDS011;6804;48.774;9.174;2023-06-04T09:42:51;2.90;;;2.40;;
13463;SDS011;6804;48.774;9.174;2023-06-04T09:45:26;6.20;;;2.72;;
13463;SDS011;6804;48.774;9.174;2023-06-04T09:47:56;3.58;;;2.60;;
13463;SDS011;6804;48.774;9.174;2023-06-04T09:50:27;7.82;;;4.57;;
13463;SDS011;6804;48.774;9.174;2023-06-04T09:52:57;3.70;;;2.65;;
13463;SDS011;6804;48.774;9.174;2023-06-04T09:55:28;4.07;;;2.58;;
13463;SDS011;6804;48.774;9.174;2023-06-04T09:57:58;3.00;;;2.70;;
13463;SDS011;6804;48.774;9.174;2023-06-04T10:00:32;3.80;;;2.67;;
13463;SDS011;6804;48.774;9.174;2023-06-04T10:03:01;4.53;;;2.95;;
13463;SDS011;6804;48.774;9.174;2023-06-04T10:05:31;4.07;;;2.90;;
13463;SDS011;6804;48.774;9.174;2023-06-04T10:08:04;4.60;;;2.58;;
13463;SDS011;6804;48.774;9.174;2023-06-04T10:10:33;7.07;;;4.03;;
13463;SDS011;6804;48.774;9.174;2023-06-04T10:13:04;12.80;;;9.35;;
13463;SDS011;6804;48.774;9.174;2023-06-04T10:15:36;6.55;;;3.00;;
13463;SDS011;6804;48.774;9.174;2023-06-04T10:18:04;4.22;;;3.35;;
13463;SDS011;6804;48.774;9.174;2023-06-04T10:20:32;4.93;;;3.40;;
13463;SDS011;6804;48.774;9.174;2023-06-04T10:23:01;5.18;;;4.43;;
13463;SDS011;6804;48.774;9.174;2023-06-04T10:25:35;5.28;;;3.70;;
13463;SDS011;6804;48.774;9.174;2023-06-04T10:28:06;7.00;;;5.68;;
13463;SDS011;6804;48.774;9.174;2023-06-04T10:30:33;10.30;;;7.00;;
13463;SDS011;6804;48.774;9.174;2023-06-04T10:33:01;7.00;;;3.40;;
13463;SDS011;6804;48.774;9.174;2023-06-04T10:35:33;5.10;;;3.50;;
13463;SDS011;6804;48.774;9.174;2023-06-04T10:38:07;3.92;;;3.20;;
13463;SDS011;6804;48.774;9.174;2023-06-04T10:40:38;3.42;;;2.85;;
13463;SDS011;6804;48.774;9.174;2023-06-04T10:43:09;3.95;;;2.90;;
13463;SDS011;6804;48.774;9.174;2023-06-04T10:45:45;4.35;;;2.90;;
13463;SDS011;6804;48.774;9.174;2023-06-04T10:48:13;3.85;;;2.80;;
13463;SDS011;6804;48.774;9.174;2023-06-04T10:50:49;4.50;;;3.10;;
13463;SDS011;6804;48.774;9.174;2023-06-04T10:53:35;5.47;;;2.90;;
13463;SDS011;6804;48.774;9.174;2023-06-04T10:56:06;3.63;;;2.80;;
13463;SDS011;6804;48.774;9.174;2023-06-04T10:58:33;3.80;;;3.10;;
13463;SDS011;6804;48.774;9.174;2023-06-04T11:01:02;4.57;;;2.42;;
13463;SDS011;6804;48.774;9.174;2023-06-04T11:03:35;4.35;;;2.83;;
13463;SDS011;6804;48.774;9.174;2023-06-04T11:06:14;5.53;;;4.50;;
13463;SDS011;6804;48.774;9.174;2023-06-04T11:08:44;4.03;;;2.58;;
13463;SDS011;6804;48.774;9.174;2023-06-04T11:11:15;3.33;;;2.85;;
13463;SDS011;6804;48.774;9.174;2023-06-04T11:13:46;3.83;;;2.90;;
13463;SDS011;6804;48.774;9.174;2023-06-04T11:16:17;6.82;;;4.80;;
13463;SDS011;6804;48.774;9.174;2023-06-04T11:18:53;4.32;;;3.20;;
13463;SDS011;6804;48.774;9.174;2023-06-04T11:21:21;7.85;;;3.92;;
13463;SDS011;6804;48.774;9.174;2023-06-04T11:23:57;3.95;;;2.85;;
13463;SDS011;6804;48.774;9.174;2023-06-04T11:26:29;3.72;;;3.15;;
13463;SDS011;6804;48.774;9.174;2023-06-04T11:29:00;3.70;;;3.33;;
13463;SDS011;6804;48.774;9.174;2023-06-04T11:31:40;6.25;;;3.53;;
13463;SDS011;6804;48.774;9.174;2023-06-04T11:34:11;3.72;;;2.58;;
13463;SDS011;6804;48.774;9.174;2023-06-04T11:37:06;4.72;;;2.97;;
13463;SDS011;6804;48.774;9.174;2023-06-04T11:39:36;3.55;;;2.55;;
13463;SDS011;6804;48.774;9.174;2023-06-04T11:42:06;3.33;;;2.80;;
13463;SDS011;6804;48.774;9.174;2023-06-04T11:44:34;6.68;;;4.30;;
13463;SDS011;6804;48.774;9.174;2023-06-04T11:47:04;3.40;;;3.10;;
13463;SDS011;6804;48.774;9.174;2023-06-04T11:49:33;3.85;;;3.35;;
13463;SDS011;6804;48.774;9.174;2023-06-04T11:52:02;3.35;;;2.95;;
13463;SDS011;6804;48.774;9.174;2023-06-04T11:54:32;5.50;;;3.97;;
13463;SDS011;6804;48.774;9.174;2023-06-04T11:57:08;6.68;;;3.80;;
13463;SDS011;6804;48.774;9.174;2023-06-04T11:59:36;4.28;;;2.97;;
13463;SDS011;6804;48.774;9.174;2023-06-04T12:02:05;6.40;;;3.38;;
13463;SDS011;6804;48.774;9.174;2023-06-04T12:04:34;4.65;;;2.92;;
13463;SDS011;6804;48.774;9.174;2023-06-04T12:07:06;7.10;;;5.25;;
13463;SDS011;6804;48.774;9.174;2023-06-04T12:09:35;6.40;;;3.58;;
13463;SDS011;6804;48.774;9.174;2023-06-04T12:12:10;6.53;;;4.05;;
13463;SDS011;6804;48.774;9.174;2023-06-04T12:14:40;5.70;;;3.50;;
13463;SDS011;6804;48.774;9.174;2023-06-04T12:17:10;3.90;;;3.28;;
13463;SDS011;6804;48.774;9.174;2023-06-04T12:19:45;5.25;;;3.67;;
13463;SDS011;6804;48.774;9.174;2023-06-04T12:22:14;5.13;;;3.65;;
13463;SDS011;6804;48.774;9.174;2023-06-04T12:24:49;4.28;;;3.38;;
13463;SDS011;6804;48.774;9.174;2023-06-04T12:27:20;6.10;;;3.70;;
13463;SDS011;6804;48.774;9.174;2023-06-04T12:29:56;4.32;;;3.45;;
13463;SDS011;6804;48.774;9.174;2023-06-04T12:32:25;6.05;;;3.75;;
13463;SDS011;6804;48.774;9.174;2023-06-04T12:34:59;4.72;;;3.20;;
13463;SDS011;6804;48.774;9.174;2023-06-04T12:37:28;4.22;;;3.80;;
13463;SDS011;6804;48.774;9.174;2023-06-04T12:39:56;3.58;;;2.90;;
13463;SDS011;6804;48.774;9.174;2023-06-04T12:42:30;3.35;;;3.05;;
13463;SDS011;6804;48.774;9.174;2023-06-04T12:44:58;3.90;;;3.50;;
13463;SDS011;6804;48.774;9.174;2023-06-04T12:47:26;4.47;;;3.00;;
13463;SDS011;6804;48.774;9.174;2023-06-04T12:49:58;5.85;;;4.72;;
13463;SDS011;6804;48.774;9.174;2023-06-04T12:52:25;4.78;;;3.80;;
13463;SDS011;6804;48.774;9.174;2023-06-04T12:54:53;5.13;;;3.95;;
13463;SDS011;6804;48.774;9.174;2023-06-04T12:57:24;3.92;;;3.53;;
13463;SDS011;6804;48.774;9.174;2023-06-04T12:59:57;6.18;;;3.65;;
13463;SDS011;6804;48.774;9.174;2023-06-04T13:02:24;5.72;;;3.53;;
13463;SDS011;6804;48.774;9.174;2023-06-04T13:04:54;3.58;;;3.13;;
13463;SDS011;6804;48.774;9.174;2023-06-04T13:07:26;4.97;;;3.33;;
13463;SDS011;6804;48.774;9.174;2023-06-04T13:09:53;4.05;;;3.45;;
13463;SDS011;6804;48.774;9.174;2023-06-04T13:12:24;6.50;;;4.28;;
13463;SDS011;6804;48.774;9.174;2023-06-04T13:14:52;5.38;;;4.50;;
13463;SDS011;6804;48.774;9.174;2023-06-04T13:17:22;9.60;;;8.60;;
13463;SDS011;6804;48.774;9.174;2023-06-04T13:19:50;7.35;;;5.18;;
13463;SDS011;6804;48.774;9.174;2023-06-04T13:22:20;4.13;;;3.70;;
13463;SDS011;6804;48.774;9.174;2023-06-04T13:24:48;4.25;;;3.85;;
13463;SDS011;6804;48.774;9.174;2023-06-04T13:27:15;4.28;;;3.80;;
13463;SDS011;6804;48.774;9.174;2023-06-04T13:29:43;3.75;;;3.28;;
13463;SDS011;6804;48.774;9.174;2023-06-04T13:32:13;3.80;;;3.10;;
13463;SDS011;6804;48.774;9.174;2023-06-04T13:34:44;4.22;;;3.50;;
13463;SDS011;6804;48.774;9.174;2023-06-04T13:37:12;4.22;;;2.83;;
13463;SDS011;6804;48.774;9.174;2023-06-04T13:39:41;5.00;;;3.58;;
13463;SDS011;6804;48.774;9.174;2023-06-04T13:42:08;3.67;;;3.22;;
13463;SDS011;6804;48.774;9.174;2023-06-04T13:44:36;5.78;;;3.15;;
13463;SDS011;6804;48.774;9.174;2023-06-04T13:47:06;4.85;;;3.35;;
13463;SDS011;6804;48.774;9.174;2023-06-04T13:49:38;4.85;;;3.20;;
13463;SDS011;6804;48.774;9.174;2023-06-04T13:52:07;3.85;;;3.10;;
13463;SDS011;6804;48.774;9.174;2023-06-04T13:54:35;4.53;;;3.08;;
13463;SDS011;6804;48.774;9.174;2023-06-04T13:57:03;6.07;;;3.58;;
13463;SDS011;6804;48.774;9.174;2023-06-04T13:59:31;5.00;;;3.20;;
13463;SDS011;6804;48.774;9.174;2023-06-04T14:01:59;4.35;;;3.47;;
13463;SDS011;6804;48.774;9.174;2023-06-04T14:04:27;3.53;;;3.22;;
13463;SDS011;6804;48.774;9.174;2023-06-04T14:06:55;4.22;;;3.38;;
13463;SDS011;6804;48.774;9.174;2023-06-04T14:09:25;3.28;;;2.95;;
13463;SDS011;6804;48.774;9.174;2023-06-04T14:11:52;4.38;;;3.40;;
13463;SDS011;6804;48.774;9.174;2023-06-04T14:14:20;4.03;;;3.63;;
13463;SDS011;6804;48.774;9.174;2023-06-04T14:16:47;5.55;;;4.07;;
13463;SDS011;6804;48.774;9.174;2023-06-04T14:19:15;8.75;;;7.25;;
13463;SDS011;6804;48.774;9.174;2023-06-04T14:21:43;10.90;;;9.75;;
13463;SDS011;6804;48.774;9.174;2023-06-04T14:24:11;6.35;;;4.13;;
13463;SDS011;6804;48.774;9.174;2023-06-04T14:26:40;4.40;;;3.92;;
13463;SDS011;6804;48.774;9.174;2023-06-04T14:29:07;4.53;;;3.38;;
13463;SDS011;6804;48.774;9.174;2023-06-04T14:31:35;3.22;;;2.92;;
13463;SDS011;6804;48.774;9.174;2023-06-04T14:34:02;4.80;;;4.18;;
13463;SDS011;6804;48.774;9.174;2023-06-04T14:36:32;4.30;;;3.35;;
13463;SDS011;6804;48.774;9.174;2023-06-04T14:39:02;3.83;;;3.20;;
13463;SDS011;6804;48.774;9.174;2023-06-04T14:41:33;4.15;;;3.35;;
13463;SDS011;6804;48.774;9.174;2023-06-04T14:44:02;6.78;;;5.90;;
13463;SDS011;6804;48.774;9.174;2023-06-04T14:46:30;4.80;;;4.00;;
13463;SDS011;6804;48.774;9.174;2023-06-04T14:48:58;4.00;;;3.55;;
13463;SDS011;6804;48.774;9.174;2023-06-04T14:51:26;3.35;;;3.05;;
13463;SDS011;6804;48.774;9.174;2023-06-04T14:53:54;6.00;;;4.43;;
13463;SDS011;6804;48.774;9.174;2023-06-04T14:56:21;4.97;;;3.90;;
13463;SDS011;6804;48.774;9.174;2023-06-04T14:58:49;4.05;;;3.53;;
13463;SDS011;6804;48.774;9.174;2023-06-04T15:01:21;5.50;;;3.50;;
13463;SDS011;6804;48.774;9.174;2023-06-04T15:03:49;3.65;;;3.35;;
13463;SDS011;6804;48.774;9.174;2023-06-04T15:06:23;3.58;;;3.13;;
13463;SDS011;6804;48.774;9.174;2023-06-04T15:08:53;4.85;;;4.45;;
13463;SDS011;6804;48.774;9.174;2023-06-04T15:11:24;4.68;;;3.85;;
13463;SDS011;6804;48.774;9.174;2023-06-04T15:13:52;5.57;;;4.80;;
13463;SDS011;6804;48.774;9.174;2023-06-04T15:16:23;4.85;;;4.40;;
13463;SDS011;6804;48.774;9.174;2023-06-04T15:18:53;3.33;;;2.92;;
13463;SDS011;6804;48.774;9.174;2023-06-04T15:21:22;4.32;;;3.85;;
13463;SDS011;6804;48.774;9.174;2023-06-04T15:23:49;5.47;;;3.58;;